Time,TemperatureF,DewpointF,PressureIn,WindDirection,WindDirectionDegrees,WindSpeedMPH,WindSpeedGustMPH,Humidity,HourlyPrecipIn,Conditions,Clouds,dailyrainin,SoftwareType,DateUTC
2013-04-19 00:00:00,61.3,50.6,27.20,SSW,203,4.0,15.0,68,0.00,,,-99.99,Weather View 32 v60,2013-04-19 04:00:00,
2013-04-19 00:20:00,61.2,50.9,27.19,South,179,7.0,15.0,69,0.00,,,-99.99,Weather View 32 v60,2013-04-19 04:20:00,
2013-04-19 00:24:00,61.2,50.9,27.19,South,179,7.0,15.0,69,0.00,,,-99.99,Weather View 32 v60,2013-04-19 04:24:00,
2013-04-19 00:40:00,60.9,50.6,27.18,South,182,6.0,15.0,69,0.00,,,-99.99,Weather View 32 v60,2013-04-19 04:40:00,
2013-04-19 01:00:00,60.6,50.7,27.18,SSW,207,4.0,15.0,70,0.00,,,-99.99,Weather View 32 v60,2013-04-19 05:00:00,
2013-04-19 01:20:00,60.6,50.7,27.16,South,179,10.0,19.0,70,0.00,,,-99.99,Weather View 32 v60,2013-04-19 05:20:00,
2013-04-19 01:25:00,60.6,50.7,27.16,South,179,10.0,19.0,70,0.00,,,-99.99,Weather View 32 v60,2013-04-19 05:25:00,
2013-04-19 01:40:00,60.5,51.0,27.15,South,178,7.0,19.0,71,0.00,,,-99.99,Weather View 32 v60,2013-04-19 05:40:00,
2013-04-19 02:00:00,60.5,51.0,27.14,SW,226,6.0,19.0,71,0.00,,,-99.99,Weather View 32 v60,2013-04-19 06:00:00,
2013-04-19 02:20:00,60.3,51.2,27.13,South,174,7.0,18.0,72,0.00,,,-99.99,Weather View 32 v60,2013-04-19 06:20:00,
2013-04-19 02:25:00,60.3,51.2,27.13,South,174,7.0,18.0,72,0.00,,,-99.99,Weather View 32 v60,2013-04-19 06:25:00,
2013-04-19 02:40:00,60.6,51.9,27.12,SSW,193,9.0,18.0,73,0.00,,,-99.99,Weather View 32 v60,2013-04-19 06:40:00,
2013-04-19 03:00:00,60.6,51.9,27.10,SW,218,9.0,17.0,73,0.00,,,-99.99,Weather View 32 v60,2013-04-19 07:00:00,
2013-04-19 03:20:00,60.7,52.3,27.10,SSW,209,10.0,22.0,74,0.00,,,-99.99,Weather View 32 v60,2013-04-19 07:20:00,
2013-04-19 03:40:00,60.6,52.6,27.10,SSW,193,7.0,22.0,75,0.00,,,-99.99,Weather View 32 v60,2013-04-19 07:40:00,
2013-04-19 04:00:00,60.5,52.5,27.09,SSW,192,10.0,23.0,75,0.00,,,-99.99,Weather View 32 v60,2013-04-19 08:00:00,
2013-04-19 04:20:00,60.1,52.5,27.08,SSW,198,12.0,23.0,76,0.00,,,-99.99,Weather View 32 v60,2013-04-19 08:20:00,
2013-04-19 04:40:00,59.7,52.5,27.08,SSW,195,5.0,23.0,77,0.00,,,-99.99,Weather View 32 v60,2013-04-19 08:40:00,
2013-04-19 05:00:00,60.0,52.8,27.07,South,170,10.0,19.0,77,0.00,,,-99.99,Weather View 32 v60,2013-04-19 09:00:00,
2013-04-19 05:20:00,60.2,52.6,27.07,SSW,202,8.0,19.0,76,0.00,,,-99.99,Weather View 32 v60,2013-04-19 09:20:00,
2013-04-19 05:40:00,60.3,52.7,27.06,South,179,13.0,17.0,76,0.00,,,-99.99,Weather View 32 v60,2013-04-19 09:40:00,
2013-04-19 06:00:00,60.2,52.9,27.06,South,189,6.0,20.0,77,0.00,,,-99.99,Weather View 32 v60,2013-04-19 10:00:00,
2013-04-19 06:20:00,60.1,52.8,27.06,South,184,7.0,21.0,77,0.00,,,-99.99,Weather View 32 v60,2013-04-19 10:20:00,
2013-04-19 06:40:00,60.1,52.8,27.05,South,179,8.0,21.0,77,0.00,,,-99.99,Weather View 32 v60,2013-04-19 10:40:00,
2013-04-19 07:00:00,60.2,52.9,27.05,South,171,12.0,21.0,77,0.00,,,-99.99,Weather View 32 v60,2013-04-19 11:00:00,
2013-04-19 07:20:00,60.6,53.0,27.05,SSE,165,8.0,19.0,76,0.00,,,-99.99,Weather View 32 v60,2013-04-19 11:20:00,
2013-04-19 07:40:00,60.8,53.2,27.06,South,178,11.0,19.0,76,0.00,,,-99.99,Weather View 32 v60,2013-04-19 11:40:00,
2013-04-19 08:00:00,61.0,53.4,27.05,SSW,193,11.0,19.0,76,0.00,,,-99.99,Weather View 32 v60,2013-04-19 12:00:00,
2013-04-19 08:20:00,61.4,53.0,27.03,SSW,210,9.0,19.0,74,0.00,,,-99.99,Weather View 32 v60,2013-04-19 12:20:00,
2013-04-19 08:40:00,61.8,53.0,27.02,SSW,206,9.0,18.0,73,0.00,,,-99.99,Weather View 32 v60,2013-04-19 12:40:00,
2013-04-19 09:00:00,62.2,53.0,27.01,SSW,211,8.0,22.0,72,0.00,,,-99.99,Weather View 32 v60,2013-04-19 13:00:00,
2013-04-19 09:20:00,62.9,53.3,27.01,South,183,12.0,22.0,71,0.00,,,-99.99,Weather View 32 v60,2013-04-19 13:20:00,
2013-04-19 09:40:00,63.6,52.8,27.00,SSW,195,7.0,22.0,68,0.00,,,-99.99,Weather View 32 v60,2013-04-19 13:40:00,
2013-04-19 10:00:00,65.9,52.5,27.00,SW,227,4.0,20.0,62,0.00,,,-99.99,Weather View 32 v60,2013-04-19 14:00:00,
2013-04-19 10:20:00,67.4,53.0,27.00,SW,219,23.0,29.0,60,0.00,,,-99.99,Weather View 32 v60,2013-04-19 14:20:00,
2013-04-19 10:40:00,68.3,53.4,26.99,SSW,213,11.0,29.0,59,0.00,,,-99.99,Weather View 32 v60,2013-04-19 14:40:00,
2013-04-19 11:00:00,69.0,52.6,26.98,SW,215,14.0,30.0,56,0.00,,,-99.99,Weather View 32 v60,2013-04-19 15:00:00,
2013-04-19 11:20:00,68.7,52.8,26.99,WSW,237,19.0,35.0,57,0.00,,,-99.99,Weather View 32 v60,2013-04-19 15:20:00,
2013-04-19 11:40:00,68.1,53.7,27.00,WSW,239,25.0,39.0,60,0.00,,,-99.99,Weather View 32 v60,2013-04-19 15:40:00,
2013-04-19 12:00:00,66.0,55.5,26.99,SW,233,14.0,39.0,69,0.00,,,-99.99,Weather View 32 v60,2013-04-19 16:00:00,
2013-04-19 12:20:00,67.8,53.4,26.97,SW,226,17.0,39.0,60,0.00,,,-99.99,Weather View 32 v60,2013-04-19 16:20:00,
2013-04-19 12:40:00,61.8,58.2,26.93,WSW,250,11.0,40.0,88,0.00,,,-99.99,Weather View 32 v60,2013-04-19 16:40:00,
2013-04-19 13:00:00,65.5,61.2,26.93,SW,223,18.0,40.0,86,0.00,,,-99.99,Weather View 32 v60,2013-04-19 17:00:00,
2013-04-19 13:20:00,67.7,62.3,26.91,SW,222,16.0,40.0,83,0.00,,,-99.99,Weather View 32 v60,2013-04-19 17:20:00,
2013-04-19 13:40:00,67.6,55.0,26.91,SW,231,15.0,29.0,64,0.00,,,-99.99,Weather View 32 v60,2013-04-19 17:40:00,
2013-04-19 14:00:00,70.3,52.8,26.90,SSW,212,10.0,31.0,54,0.00,,,-99.99,Weather View 32 v60,2013-04-19 18:00:00,
2013-04-19 14:20:00,69.4,53.5,26.90,WSW,238,14.0,31.0,57,0.00,,,-99.99,Weather View 32 v60,2013-04-19 18:20:00,
2013-04-19 14:40:00,69.6,54.1,26.89,SW,236,15.0,31.0,58,0.00,,,-99.99,Weather View 32 v60,2013-04-19 18:40:00,
2013-04-19 15:00:00,61.6,59.8,26.92,WNW,301,14.0,37.0,94,0.02,,,-99.99,Weather View 32 v60,2013-04-19 19:00:00,
2013-04-19 15:20:00,58.4,56.7,26.94,NNW,329,8.0,37.0,94,0.11,,,-99.99,Weather View 32 v60,2013-04-19 19:20:00,
2013-04-19 15:40:00,52.5,51.1,26.97,NW,326,10.0,37.0,95,0.18,,,-99.99,Weather View 32 v60,2013-04-19 19:40:00,
2013-04-19 16:00:00,50.9,49.5,26.97,NNW,327,13.0,27.0,95,0.18,,,-99.99,Weather View 32 v60,2013-04-19 20:00:00,
2013-04-19 16:20:00,49.5,48.1,27.04,WNW,300,5.0,27.0,95,0.09,,,-99.99,Weather View 32 v60,2013-04-19 20:20:00,
2013-04-19 16:40:00,48.4,47.3,27.01,NW,315,4.0,23.0,96,0.06,,,-99.99,Weather View 32 v60,2013-04-19 20:40:00,
2013-04-19 17:00:00,47.0,45.6,27.00,WNW,285,9.0,22.0,95,0.07,,,-99.99,Weather View 32 v60,2013-04-19 21:00:00,
2013-04-19 17:20:00,46.3,44.9,27.00,WNW,303,6.0,22.0,95,0.07,,,-99.99,Weather View 32 v60,2013-04-19 21:20:00,
2013-04-19 17:40:00,45.8,44.4,27.00,WNW,290,11.0,20.0,95,0.03,,,-99.99,Weather View 32 v60,2013-04-19 21:40:00,
2013-04-19 18:00:00,45.3,44.0,27.01,West,279,10.0,29.0,95,0.01,,,-99.99,Weather View 32 v60,2013-04-19 22:00:00,
2013-04-19 18:20:00,44.3,42.7,27.02,WNW,288,19.0,30.0,94,0.00,,,-99.99,Weather View 32 v60,2013-04-19 22:20:00,
2013-04-19 18:40:00,43.4,41.5,27.03,WSW,257,16.0,30.0,93,0.00,,,-99.99,Weather View 32 v60,2013-04-19 22:40:00,
2013-04-19 19:00:00,42.2,39.8,27.04,WNW,284,13.0,30.0,91,0.00,,,-99.99,Weather View 32 v60,2013-04-19 23:00:00,
2013-04-19 19:20:00,42.0,39.8,27.04,WNW,291,12.0,26.0,92,0.00,,,-99.99,Weather View 32 v60,2013-04-19 23:20:00,
2013-04-19 19:40:00,41.7,39.3,27.05,WNW,302,9.0,26.0,91,0.00,,,-99.99,Weather View 32 v60,2013-04-19 23:40:00,
2013-04-19 20:00:00,41.2,38.8,27.04,WSW,252,5.0,25.0,91,0.00,,,-99.99,Weather View 32 v60,2013-04-20 00:00:00,
2013-04-19 20:20:00,40.8,38.4,27.05,WNW,287,13.0,24.0,91,0.00,,,-99.99,Weather View 32 v60,2013-04-20 00:20:00,
2013-04-19 20:40:00,40.6,38.2,27.05,West,261,11.0,22.0,91,0.00,,,-99.99,Weather View 32 v60,2013-04-20 00:40:00,
2013-04-19 20:41:00,40.6,38.2,27.05,West,261,11.0,22.0,91,0.00,,,-99.99,Weather View 32 v60,2013-04-20 00:41:00,
2013-04-19 21:00:00,40.4,36.2,27.07,WNW,284,6.0,22.0,85,0.00,,,-99.99,Weather View 32 v60,2013-04-20 01:00:00,
2013-04-19 21:20:00,40.3,34.9,27.08,West,279,7.0,20.0,81,0.00,,,-99.99,Weather View 32 v60,2013-04-20 01:20:00,
2013-04-19 21:40:00,40.3,33.7,27.08,WNW,292,12.0,19.0,77,0.00,,,-99.99,Weather View 32 v60,2013-04-20 01:40:00,
2013-04-19 21:42:00,40.3,33.7,27.08,WNW,292,12.0,19.0,77,0.00,,,-99.99,Weather View 32 v60,2013-04-20 01:42:00,
2013-04-19 22:00:00,40.1,33.5,27.09,West,276,10.0,21.0,77,0.00,,,-99.99,Weather View 32 v60,2013-04-20 02:00:00,
2013-04-19 22:20:00,40.2,32.9,27.10,WNW,291,6.0,21.0,75,0.00,,,-99.99,Weather View 32 v60,2013-04-20 02:20:00,
2013-04-19 22:40:00,40.2,33.2,27.09,West,264,6.0,21.0,76,0.00,,,-99.99,Weather View 32 v60,2013-04-20 02:40:00,
2013-04-19 22:42:00,40.2,33.2,27.09,West,264,6.0,21.0,76,0.00,,,-99.99,Weather View 32 v60,2013-04-20 02:42:00,
2013-04-19 23:00:00,40.2,32.9,27.10,WNW,295,11.0,27.0,75,0.00,,,-99.99,Weather View 32 v60,2013-04-20 03:00:00,
2013-04-19 23:20:00,39.9,32.9,27.11,NW,314,4.0,27.0,76,0.00,,,-99.99,Weather View 32 v60,2013-04-20 03:20:00,
2013-04-19 23:40:00,39.7,32.4,27.10,NW,304,13.0,27.0,75,0.00,,,-99.99,Weather View 32 v60,2013-04-20 03:40:00,
2013-04-19 23:43:00,39.7,32.4,27.10,NW,304,13.0,27.0,75,0.00,,,-99.99,Weather View 32 v60,2013-04-20 03:43:00,